Time;durP1;ratioP1;P1;durP2;ratioP2;P2;SDS_P1;SDS_P2;PMS_P1;PMS_P2;Temp;Humidity;BMP_temperature;BMP_pressure;BME280_temperature;BME280_humidity;BME280_pressure;Samples;Min_cycle;Max_cycle;Signal;HPM_P1;HPM_P2
2022/04/19 00:02:23;;;;;;;3.72;3.08;;;19.00;48.90;;;;;;4889774;28;103929;-70
2022/04/19 00:04:48;;;;;;;3.88;2.90;;;19.00;48.90;;;;;;4889980;28;108070;-70
2022/04/19 00:07:14;;;;;;;4.95;3.55;;;19.00;48.90;;;;;;4890385;28;98636;-71
2022/04/19 00:09:39;;;;;;;4.28;3.03;;;19.00;48.80;;;;;;4890444;28;98979;-71
2022/04/19 00:12:06;;;;;;;3.50;3.00;;;19.00;48.80;;;;;;4889253;28;105471;-71
2022/04/19 00:14:34;;;;;;;4.63;3.60;;;19.00;48.80;;;;;;4889322;28;99245;-71
2022/04/19 00:16:59;;;;;;;3.63;3.10;;;18.90;48.80;;;;;;4889985;28;98555;-71
2022/04/19 00:19:25;;;;;;;4.53;3.45;;;19.00;48.80;;;;;;4889829;28;98652;-71
2022/04/19 00:21:52;;;;;;;3.65;3.33;;;18.90;48.70;;;;;;4889731;28;100941;-71
2022/04/19 00:24:18;;;;;;;5.03;3.53;;;19.00;48.80;;;;;;4888419;28;100635;-70
2022/04/19 00:26:43;;;;;;;4.40;3.30;;;19.00;48.70;;;;;;4890899;28;98533;-71
2022/04/19 00:29:09;;;;;;;4.25;3.28;;;18.90;48.70;;;;;;4890142;28;98751;-71
2022/04/19 00:31:34;;;;;;;3.67;3.30;;;18.90;48.70;;;;;;4889393;28;103991;-71
2022/04/19 00:34:00;;;;;;;3.88;3.42;;;18.90;48.70;;;;;;4889510;28;99502;-71
2022/04/19 00:36:26;;;;;;;3.67;3.28;;;18.90;48.70;;;;;;4889661;28;99063;-71
2022/04/19 00:38:52;;;;;;;4.25;3.50;;;18.90;48.60;;;;;;4890494;28;98163;-71
2022/04/19 00:41:18;;;;;;;4.18;3.58;;;18.90;48.60;;;;;;4889643;28;99385;-71
2022/04/19 00:43:43;;;;;;;5.78;3.50;;;18.90;48.60;;;;;;4889182;28;99802;-71
2022/04/19 00:46:09;;;;;;;4.82;3.90;;;18.90;48.60;;;;;;4888987;28;99331;-71
2022/04/19 00:48:34;;;;;;;4.10;3.60;;;18.90;48.60;;;;;;4890580;28;98500;-71
2022/04/19 00:51:00;;;;;;;4.20;3.78;;;18.90;48.60;;;;;;4888975;28;100232;-71
2022/04/19 00:53:27;;;;;;;4.22;3.65;;;18.90;48.60;;;;;;4887933;28;99945;-71
2022/04/19 00:55:53;;;;;;;3.97;3.58;;;18.90;48.50;;;;;;4889613;28;98647;-71
2022/04/19 00:58:19;;;;;;;3.55;3.25;;;18.90;48.60;;;;;;4890604;28;98748;-71
2022/04/19 01:00:50;;;;;;;5.43;4.05;;;18.80;48.50;;;;;;4890469;28;100170;-72
2022/04/19 01:03:18;;;;;;;4.32;3.67;;;18.90;48.50;;;;;;4893813;28;100456;-70
2022/04/19 01:05:45;;;;;;;4.05;3.65;;;18.90;48.50;;;;;;4897765;28;99155;-71
2022/04/19 01:08:11;;;;;;;4.50;3.90;;;18.80;48.50;;;;;;4898208;28;98725;-71
2022/04/19 01:10:38;;;;;;;4.35;3.70;;;18.90;48.50;;;;;;4891905;28;100170;-70
2022/04/19 01:13:19;;;;;;;3.90;3.40;;;18.80;48.40;;;;;;4893104;28;99508;-71
2022/04/19 01:15:48;;;;;;;5.13;3.78;;;18.90;48.50;;;;;;4893125;28;99084;-71
2022/04/19 01:18:20;;;;;;;4.75;3.60;;;18.80;48.40;;;;;;4892869;28;98877;-71
2022/04/19 01:20:46;;;;;;;5.15;3.70;;;18.80;48.50;;;;;;4891982;28;100931;-71
2022/04/19 01:23:12;;;;;;;4.13;3.60;;;18.80;48.50;;;;;;4893401;28;100269;-70
2022/04/19 01:25:38;;;;;;;4.90;3.75;;;18.80;48.50;;;;;;4893400;28;98862;-71
2022/04/19 01:28:04;;;;;;;4.45;3.60;;;18.80;48.50;;;;;;4893314;28;97828;-71
2022/04/19 01:30:32;;;;;;;4.50;3.83;;;18.80;48.30;;;;;;4892118;28;100302;-71
2022/04/19 01:32:57;;;;;;;3.75;3.45;;;18.80;48.30;;;;;;4892047;28;99868;-71
2022/04/19 01:35:25;;;;;;;3.97;3.58;;;18.80;48.30;;;;;;4891758;28;99613;-71
2022/04/19 01:37:51;;;;;;;4.53;3.50;;;18.80;48.30;;;;;;4893350;28;98672;-71
2022/04/19 01:40:18;;;;;;;4.40;4.00;;;18.70;48.30;;;;;;4891447;28;99816;-71
2022/04/19 01:42:49;;;;;;;5.00;3.85;;;18.80;48.30;;;;;;4891787;28;100278;-71
2022/04/19 01:45:20;;;;;;;4.32;3.90;;;18.70;48.20;;;;;;4892682;28;98791;-71
2022/04/19 01:47:46;;;;;;;4.07;3.53;;;18.70;48.20;;;;;;4891940;28;98721;-71
2022/04/19 01:50:13;;;;;;;4.40;3.58;;;18.70;48.20;;;;;;4892246;28;99710;-71
2022/04/19 01:52:41;;;;;;;5.13;3.85;;;18.70;48.20;;;;;;4891777;28;100060;-71
2022/04/19 01:55:09;;;;;;;4.20;3.80;;;18.70;48.20;;;;;;4892302;28;98957;-69
2022/04/19 01:57:35;;;;;;;4.18;3.65;;;18.70;48.10;;;;;;4892388;28;98891;-71
2022/04/19 02:00:03;;;;;;;4.78;3.92;;;18.70;48.20;;;;;;4892490;28;101287;-71
2022/04/19 02:02:29;;;;;;;4.20;3.80;;;18.70;48.10;;;;;;4892750;28;100880;-70
2022/04/19 02:04:54;;;;;;;4.05;3.65;;;18.70;48.10;;;;;;4892974;28;98624;-72
2022/04/19 02:07:20;;;;;;;4.75;3.80;;;18.70;48.20;;;;;;4892420;28;98909;-71
2022/04/19 02:09:47;;;;;;;4.07;3.63;;;18.70;48.10;;;;;;4890429;28;113645;-71
2022/04/19 02:12:13;;;;;;;4.20;3.80;;;18.70;48.10;;;;;;4891619;28;100688;-71
2022/04/19 02:14:41;;;;;;;4.28;3.40;;;18.70;48.10;;;;;;4891179;28;98814;-71
2022/04/19 02:17:09;;;;;;;5.00;4.00;;;18.70;48.00;;;;;;4892518;28;97830;-71
2022/04/19 02:19:35;;;;;;;4.47;3.92;;;18.70;48.00;;;;;;4889719;28;100696;-71
2022/04/19 02:22:06;;;;;;;4.60;3.95;;;18.70;48.00;;;;;;4890826;28;100516;-71
2022/04/19 02:24:33;;;;;;;4.45;4.05;;;18.70;47.80;;;;;;4889986;28;99905;-71
2022/04/19 02:26:59;;;;;;;4.43;3.85;;;18.70;47.90;;;;;;4891982;28;98642;-71
2022/04/19 02:29:25;;;;;;;4.97;3.90;;;18.70;48.00;;;;;;4890153;28;101287;-71
2022/04/19 02:31:51;;;;;;;6.28;4.00;;;18.70;47.90;;;;;;4891376;28;99228;-71
2022/04/19 02:34:18;;;;;;;4.65;3.75;;;18.70;47.80;;;;;;4890518;28;98639;-71
2022/04/19 02:36:44;;;;;;;4.70;3.75;;;18.70;47.90;;;;;;4891583;28;98727;-71
2022/04/19 02:39:11;;;;;;;4.35;3.95;;;18.60;47.80;;;;;;4890607;28;100119;-69
2022/04/19 02:41:37;;;;;;;4.43;3.95;;;18.60;47.80;;;;;;4890444;28;99929;-69
2022/04/19 02:44:08;;;;;;;6.28;4.30;;;18.60;47.80;;;;;;4891261;28;99124;-71
2022/04/19 02:46:35;;;;;;;5.05;3.75;;;18.60;47.70;;;;;;4890298;28;98649;-70
2022/04/19 02:49:05;;;;;;;4.45;4.05;;;18.60;47.70;;;;;;4890823;28;100915;-71
2022/04/19 02:51:35;;;;;;;4.57;4.03;;;18.60;47.70;;;;;;4890567;28;101360;-69
2022/04/19 02:54:03;;;;;;;4.97;4.35;;;18.60;47.70;;;;;;4891579;28;99192;-71
2022/04/19 02:56:29;;;;;;;4.80;4.30;;;18.60;47.70;;;;;;4890667;28;98925;-71
2022/04/19 02:58:56;;;;;;;4.82;4.32;;;18.60;47.70;;;;;;4890375;28;100160;-71
2022/04/19 03:01:21;;;;;;;6.40;4.28;;;18.60;47.70;;;;;;4890220;28;100160;-71
2022/04/19 03:03:48;;;;;;;4.75;3.88;;;18.60;47.80;;;;;;4890467;28;104334;-70
2022/04/19 03:06:14;;;;;;;4.93;4.40;;;18.60;47.70;;;;;;4892370;28;97849;-70
2022/04/19 03:08:40;;;;;;;5.30;4.32;;;18.60;47.70;;;;;;4890569;28;99150;-71
2022/04/19 03:11:06;;;;;;;4.47;4.05;;;18.50;48.70;;;;;;4890923;28;100959;-71
2022/04/19 03:13:32;;;;;;;5.20;4.10;;;18.60;47.70;;;;;;4890547;28;99642;-71
2022/04/19 04:19:34;;;;;;;5.32;4.53;;;18.40;47.80;;;;;;4814346;23;106107;-70
2022/04/19 04:22:00;;;;;;;5.18;4.68;;;18.40;47.90;;;;;;4898017;23;98644;-70
2022/04/19 04:24:26;;;;;;;5.65;4.78;;;18.40;47.80;;;;;;4890299;28;98923;-70
2022/04/19 04:26:52;;;;;;;4.97;4.38;;;18.40;47.80;;;;;;4891303;28;99034;-71
2022/04/19 04:29:17;;;;;;;6.32;4.47;;;18.40;47.70;;;;;;4890080;28;100234;-70
2022/04/19 04:31:43;;;;;;;4.75;4.25;;;18.40;47.80;;;;;;4890716;28;98601;-70
2022/04/19 04:34:09;;;;;;;5.00;4.53;;;18.40;47.70;;;;;;4889781;28;99151;-70
2022/04/19 04:36:35;;;;;;;5.22;4.53;;;18.40;47.70;;;;;;4889835;28;100897;-70
2022/04/19 04:39:02;;;;;;;5.18;4.47;;;18.40;47.70;;;;;;4889588;28;100617;-70
2022/04/19 04:41:27;;;;;;;4.93;4.43;;;18.40;47.60;;;;;;4890651;28;98872;-70
2022/04/19 04:43:53;;;;;;;8.48;5.00;;;18.40;47.70;;;;;;4889898;28;98489;-70
2022/04/19 04:51:47;;;;;;;5.35;4.85;;;18.30;47.60;;;;;;4889373;28;98752;-70
2022/04/19 04:54:13;;;;;;;5.50;4.57;;;18.30;47.60;;;;;;4891098;28;98094;-70
2022/04/19 04:56:38;;;;;;;5.35;4.70;;;18.30;47.70;;;;;;4889128;28;99361;-71
2022/04/19 04:59:04;;;;;;;5.68;5.05;;;18.30;47.60;;;;;;4889368;28;110510;-71
2022/04/19 05:01:30;;;;;;;5.80;4.80;;;18.30;47.60;;;;;;4889535;28;99370;-71
2022/04/19 05:03:55;;;;;;;6.40;5.32;;;18.30;47.60;;;;;;4889887;28;98735;-71
2022/04/19 05:06:21;;;;;;;5.55;4.95;;;18.30;47.60;;;;;;4889679;28;100153;-70
2022/04/19 05:08:46;;;;;;;6.15;5.53;;;18.30;47.60;;;;;;4889206;28;112648;-71
2022/04/19 05:11:12;;;;;;;5.72;5.22;;;18.30;47.70;;;;;;4889567;28;102930;-71
2022/04/19 05:13:37;;;;;;;6.38;5.15;;;18.30;47.60;;;;;;4890068;28;98502;-70
2022/04/19 05:16:03;;;;;;;6.82;5.25;;;18.30;47.50;;;;;;4889905;28;99188;-70
2022/04/19 05:18:31;;;;;;;5.57;5.03;;;18.30;47.50;;;;;;4889145;28;99798;-71
2022/04/19 05:20:56;;;;;;;5.70;5.10;;;18.30;47.50;;;;;;4888648;28;99206;-70
2022/04/19 05:23:22;;;;;;;6.72;5.35;;;18.20;47.40;;;;;;4889917;28;98703;-70
2022/04/19 05:25:48;;;;;;;5.88;5.20;;;18.30;47.50;;;;;;4888195;28;99893;-70
2022/04/19 05:28:14;;;;;;;7.18;6.07;;;18.30;47.50;;;;;;4889495;28;100764;-70
2022/04/19 05:30:39;;;;;;;6.68;5.78;;;18.20;47.40;;;;;;4887838;28;99589;-69
2022/04/19 05:33:05;;;;;;;6.10;5.47;;;18.30;47.50;;;;;;4890352;28;98817;-70
2022/04/19 05:35:31;;;;;;;6.00;5.40;;;18.20;47.40;;;;;;4889214;28;107501;-73
2022/04/19 05:37:58;;;;;;;6.90;5.95;;;18.30;47.50;;;;;;4889320;28;99774;-72
2022/04/19 05:40:23;;;;;;;8.07;5.75;;;18.30;47.30;;;;;;4889113;28;98708;-71
2022/04/19 05:42:49;;;;;;;6.82;6.03;;;18.40;47.40;;;;;;4889527;28;97828;-74
2022/04/19 05:45:15;;;;;;;6.75;5.60;;;18.30;47.50;;;;;;4888969;28;99536;-74
2022/04/19 05:47:40;;;;;;;10.63;6.07;;;18.40;47.40;;;;;;4888320;28;100443;-73
2022/04/19 05:50:06;;;;;;;10.00;5.97;;;18.40;47.60;;;;;;4889091;28;99760;-72
2022/04/19 05:52:33;;;;;;;11.10;6.75;;;18.40;47.80;;;;;;4888487;28;99106;-73
2022/04/19 05:54:58;;;;;;;7.35;6.30;;;18.40;47.80;;;;;;4888666;28;100116;-72
2022/04/19 05:57:24;;;;;;;9.73;6.47;;;18.40;48.10;;;;;;4889982;28;99806;-72
2022/04/19 05:59:51;;;;;;;9.00;6.05;;;18.50;48.30;;;;;;4892950;28;98983;-72
2022/04/19 06:05:04;;;;;;;9.15;6.30;;;18.50;48.40;;;;;;4891098;28;99111;-73
2022/04/19 06:07:30;;;;;;;9.30;6.05;;;18.50;48.20;;;;;;4891910;28;99052;-73
2022/04/19 06:09:57;;;;;;;9.80;7.07;;;18.50;48.50;;;;;;4892123;28;98707;-73
2022/04/19 06:12:24;;;;;;;11.20;6.70;;;18.50;48.50;;;;;;4893153;28;99071;-71
2022/04/19 06:14:49;;;;;;;11.27;6.45;;;18.50;48.40;;;;;;4892085;28;101504;-72
2022/04/19 06:17:21;;;;;;;10.75;6.20;;;18.60;48.80;;;;;;4894168;28;100450;-71
2022/04/19 06:19:46;;;;;;;13.15;6.78;;;18.60;48.90;;;;;;4892975;28;99242;-72
2022/04/19 06:22:13;;;;;;;13.70;6.28;;;18.70;48.90;;;;;;4893659;28;98737;-71
2022/04/19 06:24:39;;;;;;;11.13;6.88;;;18.70;49.10;;;;;;4893293;28;100961;-71
2022/04/19 06:27:05;;;;;;;13.75;6.68;;;18.70;49.70;;;;;;4892366;28;100477;-71
2022/04/19 06:29:30;;;;;;;60.25;8.52;;;18.80;49.80;;;;;;4893034;28;100353;-74
2022/04/19 06:31:56;;;;;;;29.35;8.25;;;18.80;50.90;;;;;;4878875;28;97906;-71
2022/04/19 06:34:22;;;;;;;26.90;7.35;;;18.80;51.40;;;;;;4897230;28;101483;-72
2022/04/19 06:36:48;;;;;;;31.30;7.68;;;18.90;51.60;;;;;;4895365;28;99872;-71
2022/04/19 06:39:15;;;;;;;27.95;7.47;;;19.10;52.00;;;;;;4895208;28;99351;-72
2022/04/19 06:41:42;;;;;;;24.73;7.68;;;19.30;51.70;;;;;;4893027;28;99166;-72
2022/04/19 06:44:08;;;;;;;19.20;7.50;;;19.40;51.30;;;;;;4892736;28;101224;-71
2022/04/19 06:46:34;;;;;;;15.93;6.55;;;19.40;51.00;;;;;;4890693;28;100108;-71
2022/04/19 06:49:00;;;;;;;19.50;6.20;;;19.30;50.90;;;;;;4891407;28;98609;-72
2022/04/19 06:51:25;;;;;;;16.60;6.40;;;19.30;50.80;;;;;;4891325;28;99247;-71
2022/04/19 06:53:52;;;;;;;12.20;6.43;;;19.20;50.70;;;;;;4891470;28;100306;-71
2022/04/19 06:56:18;;;;;;;18.20;6.68;;;19.20;50.80;;;;;;4890860;28;100219;-71
2022/04/19 06:58:44;;;;;;;17.23;6.63;;;19.20;50.70;;;;;;4892272;28;99033;-71
2022/04/19 07:01:10;;;;;;;11.73;6.25;;;19.10;50.70;;;;;;4892020;28;98990;-71
2022/04/19 07:03:37;;;;;;;14.88;6.68;;;19.10;50.60;;;;;;4890807;28;99825;-70
2022/04/19 07:06:05;;;;;;;18.17;6.97;;;19.10;50.60;;;;;;4891201;28;101288;-69
2022/04/19 07:08:31;;;;;;;15.27;6.90;;;19.10;50.60;;;;;;4890094;28;99828;-69
2022/04/19 07:10:57;;;;;;;9.27;6.10;;;19.10;50.60;;;;;;4891306;28;99140;-70
2022/04/19 07:13:24;;;;;;;12.13;6.35;;;19.00;50.50;;;;;;4890747;28;100364;-69
2022/04/19 07:15:50;;;;;;;10.45;6.13;;;19.00;50.50;;;;;;4891831;28;100066;-68
2022/04/19 07:18:17;;;;;;;13.77;6.47;;;19.00;51.30;;;;;;4891796;28;98676;-70
2022/04/19 07:28:56;;;;;;;11.77;6.80;;;19.00;52.50;;;;;;4891783;28;99977;-70
2022/04/19 07:31:23;;;;;;;10.70;6.18;;;19.00;52.50;;;;;;4891393;28;98704;-67
2022/04/19 07:33:48;;;;;;;9.52;6.30;;;19.10;52.70;;;;;;4890542;28;99199;-67
2022/04/19 07:36:14;;;;;;;11.35;6.43;;;19.00;53.00;;;;;;4889946;28;99763;-65
2022/04/19 07:38:40;;;;;;;10.82;6.18;;;19.00;53.70;;;;;;4890405;28;99250;-69
2022/04/19 07:41:06;;;;;;;11.57;6.70;;;19.00;54.20;;;;;;4891083;28;98916;-69
2022/04/19 07:43:32;;;;;;;11.45;6.85;;;19.00;54.50;;;;;;4890499;28;101254;-69
2022/04/19 07:45:57;;;;;;;11.85;7.47;;;19.00;54.40;;;;;;4890385;28;106344;-69
2022/04/19 07:48:24;;;;;;;12.10;7.40;;;19.00;54.30;;;;;;4890718;28;98597;-69
2022/04/19 07:50:51;;;;;;;15.68;7.50;;;19.00;54.40;;;;;;4890355;28;98909;-69
2022/04/19 07:53:16;;;;;;;12.25;7.07;;;19.00;54.40;;;;;;4888975;28;100943;-69
2022/04/19 07:55:42;;;;;;;10.50;7.22;;;19.00;54.40;;;;;;4889443;28;100724;-69
2022/04/19 07:58:08;;;;;;;9.48;6.35;;;19.00;54.40;;;;;;4891349;28;98752;-71
2022/04/19 08:00:34;;;;;;;11.40;6.95;;;19.00;54.40;;;;;;4889175;28;100430;-71
2022/04/19 08:02:59;;;;;;;12.88;6.60;;;19.00;54.60;;;;;;4890591;28;99270;-71
2022/04/19 08:05:26;;;;;;;11.50;6.88;;;19.00;54.70;;;;;;4888879;28;100018;-71
2022/04/19 08:07:52;;;;;;;17.40;7.03;;;19.00;54.70;;;;;;4891043;28;99006;-70
2022/04/19 08:10:18;;;;;;;12.50;6.70;;;19.00;54.70;;;;;;4891239;28;98073;-70
2022/04/19 08:12:45;;;;;;;11.13;7.05;;;18.90;54.60;;;;;;4889218;28;100507;-70
2022/04/19 08:15:12;;;;;;;9.73;6.40;;;19.00;54.50;;;;;;4891732;28;100297;-70
2022/04/19 08:17:38;;;;;;;10.38;6.40;;;18.90;54.40;;;;;;4890882;28;99442;-70
2022/04/19 08:20:05;;;;;;;11.40;6.45;;;19.00;54.40;;;;;;4896409;28;99512;-70
2022/04/19 08:22:32;;;;;;;8.95;5.93;;;18.90;54.20;;;;;;4897391;28;100434;-70
2022/04/19 08:24:59;;;;;;;7.60;6.20;;;18.90;54.10;;;;;;4892809;28;100927;-71
2022/04/19 08:27:25;;;;;;;9.43;6.13;;;18.90;54.00;;;;;;4891311;28;99013;-70
2022/04/19 08:29:51;;;;;;;10.43;5.63;;;18.90;54.00;;;;;;4891044;28;99034;-70
2022/04/19 08:32:16;;;;;;;8.88;6.07;;;18.90;53.90;;;;;;4890618;28;99668;-70
2022/04/19 08:34:42;;;;;;;12.20;5.80;;;18.90;53.80;;;;;;4890486;28;99159;-70
2022/04/19 08:37:09;;;;;;;9.57;6.10;;;18.90;53.80;;;;;;4889954;28;100921;-70
2022/04/19 08:39:36;;;;;;;8.05;5.78;;;18.90;53.60;;;;;;4889626;28;99060;-70
2022/04/19 08:42:03;;;;;;;8.57;6.20;;;18.90;53.60;;;;;;4888296;28;101434;-70
2022/04/19 08:44:29;;;;;;;9.10;6.13;;;18.90;53.60;;;;;;4889532;28;99875;-70
2022/04/19 08:46:57;;;;;;;10.18;6.20;;;18.90;53.40;;;;;;4888779;28;99111;-70
2022/04/19 08:49:24;;;;;;;6.93;5.18;;;18.90;53.30;;;;;;4891070;28;98663;-70
2022/04/19 08:51:50;;;;;;;9.40;5.82;;;18.90;53.20;;;;;;4888853;28;99271;-70
2022/04/19 08:59:44;;;;;;;8.05;6.10;;;18.90;52.80;;;;;;4891111;28;97842;-70
2022/04/19 09:02:24;;;;;;;8.95;6.03;;;18.90;52.80;;;;;;4889776;28;99175;-69
2022/04/19 09:04:51;;;;;;;7.70;5.68;;;18.90;52.70;;;;;;4888629;28;99823;-70
2022/04/19 09:07:20;;;;;;;10.20;5.60;;;18.90;52.70;;;;;;4888480;28;99885;-70
2022/04/19 09:09:59;;;;;;;6.55;5.30;;;18.90;52.50;;;;;;4889772;28;99203;-70
2022/04/19 09:12:25;;;;;;;7.63;5.60;;;18.90;52.40;;;;;;4908386;28;99887;-70
2022/04/19 09:15:00;;;;;;;6.90;5.35;;;18.90;52.50;;;;;;4909093;28;99832;-70
2022/04/19 09:17:31;;;;;;;7.63;5.57;;;18.90;52.30;;;;;;4907713;28;98618;-70
2022/04/19 09:20:19;;;;;;;8.30;5.18;;;18.90;52.20;;;;;;4908040;28;99142;-70
2022/04/19 09:22:48;;;;;;;8.45;5.57;;;18.90;52.10;;;;;;4891353;28;101298;-70
2022/04/19 09:25:15;;;;;;;7.45;5.07;;;18.90;52.00;;;;;;4908450;28;100369;-70
2022/04/19 09:27:42;;;;;;;8.20;5.60;;;18.90;52.00;;;;;;4907981;28;99141;-70
2022/04/19 09:30:19;;;;;;;6.60;5.45;;;18.90;51.90;;;;;;4908480;28;99066;-70
2022/04/19 09:33:15;;;;;;;8.50;5.15;;;18.90;51.80;;;;;;4909169;28;102665;-70
2022/04/19 09:35:47;;;;;;;6.30;5.15;;;18.90;51.70;;;;;;4911171;28;100783;-70
2022/04/19 09:38:14;;;;;;;5.72;4.68;;;18.90;51.80;;;;;;4911911;28;98544;-69
2022/04/19 09:40:41;;;;;;;7.50;5.13;;;18.90;51.90;;;;;;4911217;28;98661;-70
2022/04/19 09:43:14;;;;;;;7.10;5.28;;;18.90;51.70;;;;;;4911044;28;99176;-70
2022/04/19 09:45:47;;;;;;;;;;;18.90;51.60;;;;;;4911476;28;99795;-70
2022/04/19 09:48:16;;;;;;;5.65;4.88;;;18.90;51.70;;;;;;4912419;28;99108;-70
2022/04/19 09:50:48;;;;;;;6.90;4.82;;;18.90;52.70;;;;;;4911855;28;98423;-70
2022/04/19 09:53:18;;;;;;;5.82;4.88;;;18.90;51.60;;;;;;4910540;28;100243;-70
2022/04/19 09:55:49;;;;;;;6.85;4.72;;;18.90;51.50;;;;;;4909636;28;99902;-70
2022/04/19 09:58:15;;;;;;;5.90;4.57;;;19.00;51.50;;;;;;4912200;28;99843;-70
2022/04/19 10:00:44;;;;;;;6.72;4.22;;;19.00;51.50;;;;;;4914316;28;98910;-70
2022/04/19 10:08:46;;;;;;;5.35;4.63;;;19.00;51.30;;;;;;4911875;28;98642;-70
2022/04/19 10:11:12;;;;;;;5.80;4.53;;;19.10;51.30;;;;;;4911088;28;98931;-70
2022/04/19 10:13:39;;;;;;;5.97;4.28;;;19.10;51.20;;;;;;4910235;28;99233;-70
2022/04/19 10:16:15;;;;;;;5.25;4.55;;;19.10;51.20;;;;;;4910551;28;99938;-70
2022/04/19 10:18:42;;;;;;;6.20;4.60;;;19.10;51.10;;;;;;4909934;28;99120;-70
2022/04/19 10:21:13;;;;;;;5.10;4.40;;;19.10;51.10;;;;;;4911213;28;98531;-70
2022/04/19 10:23:40;;;;;;;5.95;4.07;;;19.10;51.00;;;;;;4908943;28;101534;-70
2022/04/19 10:26:14;;;;;;;5.75;4.18;;;19.10;51.00;;;;;;4910510;28;100299;-70
2022/04/19 10:28:40;;;;;;;5.43;4.32;;;19.20;50.90;;;;;;4910970;28;98646;-70
2022/04/19 10:31:07;;;;;;;5.70;3.97;;;19.10;50.80;;;;;;4911080;28;98596;-70
2022/04/19 10:33:39;;;;;;;5.72;4.00;;;19.20;50.80;;;;;;4911246;28;99064;-70
2022/04/19 10:36:34;;;;;;;5.30;4.15;;;19.20;50.60;;;;;;4893127;28;100458;-70
2022/04/19 10:39:11;;;;;;;4.95;3.85;;;19.20;50.60;;;;;;4910155;28;99132;-70
2022/04/19 10:42:05;;;;;;;4.47;3.83;;;19.20;50.60;;;;;;4911686;28;98464;-70
2022/04/19 10:44:49;;;;;;;5.90;4.15;;;19.20;50.60;;;;;;4909797;28;100939;-70
2022/04/19 10:47:22;;;;;;;4.38;3.58;;;19.20;50.60;;;;;;4910462;28;98815;-70
2022/04/19 10:49:48;;;;;;;;;;;19.20;50.60;;;;;;4910202;28;99589;-71
2022/04/19 10:52:35;;;;;;;4.55;3.50;;;19.20;50.60;;;;;;4912082;28;98531;-70
2022/04/19 10:55:03;;;;;;;6.00;3.75;;;19.30;50.60;;;;;;4910071;28;100550;-70
2022/04/19 11:00:31;;;;;;;6.82;3.33;;;19.30;50.50;;;;;;4909811;28;98681;-70
2022/04/19 11:03:05;;;;;;;4.32;3.50;;;19.30;50.50;;;;;;4910865;28;98703;-70
2022/04/19 11:05:44;;;;;;;4.53;3.08;;;19.30;50.40;;;;;;4910405;28;100458;-70
2022/04/19 11:08:25;;;;;;;4.45;3.75;;;19.30;50.30;;;;;;4911085;28;100116;-70
2022/04/19 11:10:52;;;;;;;4.15;3.55;;;19.30;50.30;;;;;;4910085;28;99219;-70
2022/04/19 11:13:22;;;;;;;3.80;3.03;;;19.30;51.30;;;;;;4910475;28;98702;-70
2022/04/19 11:16:06;;;;;;;4.25;3.60;;;19.30;50.30;;;;;;4909555;28;101633;-70
2022/04/19 11:18:54;;;;;;;4.47;3.42;;;19.30;50.30;;;;;;4909486;28;99618;-70
2022/04/19 11:21:46;;;;;;;3.65;3.15;;;19.40;50.30;;;;;;4910002;28;99216;-70
2022/04/19 11:24:12;;;;;;;4.00;2.83;;;19.40;50.30;;;;;;4910938;28;98576;-70
2022/04/19 11:26:40;;;;;;;4.65;3.08;;;19.30;50.30;;;;;;4909787;28;100985;-70
2022/04/19 11:29:09;;;;;;;4.82;3.03;;;19.30;50.20;;;;;;4909671;28;99869;-70
2022/04/19 11:31:44;;;;;;;3.83;3.10;;;19.40;50.30;;;;;;4910101;28;99206;-71
2022/04/19 11:34:14;;;;;;;5.25;4.03;;;19.40;50.20;;;;;;4910447;28;98340;-70
2022/04/19 11:36:40;;;;;;;3.92;2.92;;;19.40;50.30;;;;;;4909197;28;100676;-70
2022/04/19 11:39:06;;;;;;;3.35;2.90;;;19.40;50.30;;;;;;4909211;28;100112;-69
2022/04/19 11:46:44;;;;;;;3.40;2.88;;;19.40;50.20;;;;;;4911987;28;99314;-70
2022/04/19 11:49:10;;;;;;;6.47;3.00;;;19.40;50.10;;;;;;4910346;28;99872;-70
2022/04/19 11:51:37;;;;;;;3.53;2.67;;;19.40;50.10;;;;;;4911223;28;99291;-70
2022/04/19 11:54:08;;;;;;;3.08;2.78;;;19.40;50.10;;;;;;4911132;28;98614;-70
2022/04/19 11:56:34;;;;;;;2.90;2.60;;;19.40;50.00;;;;;;4909599;28;102349;-70
2022/04/19 11:59:01;;;;;;;3.42;2.83;;;19.40;50.00;;;;;;4910482;28;99890;-70
2022/04/19 12:01:28;;;;;;;3.60;2.55;;;19.40;50.00;;;;;;4909982;28;98957;-70
2022/04/19 12:03:55;;;;;;;3.25;2.70;;;19.40;50.00;;;;;;4909598;28;99082;-69
2022/04/19 12:06:22;;;;;;;2.83;2.58;;;19.40;50.00;;;;;;4908274;28;100953;-69
2022/04/19 12:08:52;;;;;;;3.45;2.60;;;19.40;49.90;;;;;;4909038;28;100637;-69
2022/04/19 12:11:36;;;;;;;3.47;2.50;;;19.40;49.90;;;;;;4909875;28;98640;-69
2022/04/19 12:14:03;;;;;;;3.55;2.80;;;19.40;49.90;;;;;;4908925;28;98781;-69
2022/04/19 12:16:36;;;;;;;3.53;2.70;;;19.40;50.00;;;;;;4909580;28;99673;-69
2022/04/19 12:19:12;;;;;;;2.92;2.50;;;19.40;49.90;;;;;;4909506;28;100254;-70
2022/04/19 12:21:45;;;;;;;2.72;2.20;;;19.40;49.90;;;;;;4908633;28;98893;-70
2022/04/19 12:24:19;;;;;;;;;;;19.40;50.00;;;;;;4910141;28;97935;-70
2022/04/19 12:26:49;;;;;;;2.75;2.33;;;19.40;50.00;;;;;;4909625;28;100552;-69
2022/04/19 12:29:16;;;;;;;4.15;2.53;;;19.40;51.10;;;;;;4908817;28;100250;-69
2022/04/19 12:31:50;;;;;;;2.42;2.10;;;19.40;50.10;;;;;;4909178;28;99824;-70
2022/04/19 12:34:16;;;;;;;2.90;2.25;;;19.40;50.00;;;;;;4909278;28;99038;-70
2022/04/19 12:36:46;;;;;;;2.78;2.42;;;19.40;50.00;;;;;;4908091;28;100447;-70
2022/04/19 12:39:13;;;;;;;3.63;2.42;;;19.40;50.00;;;;;;4908414;28;98694;-70
2022/04/19 12:41:43;;;;;;;2.65;2.00;;;19.40;50.00;;;;;;4909484;28;98694;-69
2022/04/19 12:44:12;;;;;;;2.63;1.95;;;19.40;49.90;;;;;;4909278;28;98610;-70
2022/04/19 12:46:52;;;;;;;2.28;1.80;;;19.40;49.90;;;;;;4909595;28;99274;-69
2022/04/19 12:49:29;;;;;;;2.20;1.88;;;19.40;49.90;;;;;;4909157;28;99856;-69
2022/04/19 12:52:05;;;;;;;2.45;2.25;;;19.40;49.80;;;;;;4908528;28;98627;-70
2022/04/19 12:54:33;;;;;;;2.60;2.10;;;19.40;49.80;;;;;;4908974;28;98872;-69
2022/04/19 12:57:04;;;;;;;2.40;2.10;;;19.40;49.80;;;;;;4908369;28;101305;-69
2022/04/19 12:59:33;;;;;;;3.50;2.20;;;19.40;49.80;;;;;;4907141;28;101054;-69
2022/04/19 13:02:00;;;;;;;2.88;1.90;;;19.40;49.70;;;;;;4891077;28;98634;-69
2022/04/19 13:04:26;;;;;;;2.95;2.00;;;19.50;49.80;;;;;;4907575;28;99477;-69
2022/04/19 13:12:26;;;;;;;2.33;1.90;;;19.40;49.60;;;;;;4912441;28;98539;-69
2022/04/19 13:14:54;;;;;;;1.95;1.83;;;19.40;49.60;;;;;;4912527;28;98123;-69
2022/04/19 13:17:21;;;;;;;2.97;1.77;;;19.50;49.70;;;;;;4910991;28;98742;-69
2022/04/19 13:19:47;;;;;;;3.83;1.77;;;19.50;49.70;;;;;;4912639;28;100083;-69
2022/04/19 13:22:13;;;;;;;2.15;1.70;;;19.50;49.60;;;;;;4911226;28;99306;-69
2022/04/19 13:24:41;;;;;;;2.17;1.98;;;19.50;49.50;;;;;;4913235;28;98728;-69
2022/04/19 13:27:08;;;;;;;2.28;1.70;;;19.50;50.00;;;;;;4912910;28;100101;-69
2022/04/19 13:29:34;;;;;;;1.73;1.60;;;19.50;49.50;;;;;;4913989;28;98800;-69
2022/04/19 13:32:01;;;;;;;2.13;1.63;;;19.50;49.40;;;;;;4913706;28;98658;-69
2022/04/19 13:34:27;;;;;;;2.28;1.55;;;19.50;49.40;;;;;;4912467;28;98634;-70
2022/04/19 13:36:56;;;;;;;2.60;1.90;;;19.50;49.30;;;;;;4911948;28;100145;-69
2022/04/19 13:39:22;;;;;;;2.35;1.60;;;19.60;49.40;;;;;;4912103;28;99882;-69
2022/04/19 13:41:48;;;;;;;2.17;1.60;;;19.50;49.30;;;;;;4912212;28;98555;-69
2022/04/19 13:44:13;;;;;;;1.88;1.67;;;19.50;49.30;;;;;;4912746;28;98566;-70
2022/04/19 13:46:40;;;;;;;1.83;1.58;;;19.60;49.40;;;;;;4911182;28;101094;-70
2022/04/19 13:49:06;;;;;;;2.80;1.77;;;19.60;49.20;;;;;;4912497;28;100236;-69
2022/04/19 13:51:35;;;;;;;2.15;1.50;;;19.60;49.20;;;;;;4912319;28;98534;-69
2022/04/19 13:54:03;;;;;;;3.42;1.50;;;19.60;49.30;;;;;;4911238;28;99181;-69
2022/04/19 13:56:29;;;;;;;1.67;1.55;;;19.60;49.20;;;;;;4911016;28;100780;-69
2022/04/19 13:58:57;;;;;;;2.80;1.27;;;19.60;49.20;;;;;;4910682;28;99902;-69
2022/04/19 14:01:25;;;;;;;2.13;1.60;;;19.60;49.40;;;;;;4911736;28;98668;-70
2022/04/19 14:03:51;;;;;;;1.83;1.67;;;19.60;49.50;;;;;;4893476;28;97995;-70
2022/04/19 14:06:17;;;;;;;2.22;1.33;;;19.60;49.50;;;;;;4911814;28;99178;-70
2022/04/19 14:08:42;;;;;;;2.58;1.65;;;19.50;49.50;;;;;;4910357;28;102387;-69
2022/04/19 14:11:08;;;;;;;2.47;1.40;;;19.60;49.60;;;;;;4911069;28;99873;-69
2022/04/19 14:13:33;;;;;;;2.15;1.58;;;19.60;49.60;;;;;;4912164;28;98576;-70
2022/04/19 14:15:59;;;;;;;2.60;1.50;;;19.60;50.60;;;;;;4910457;28;107747;-70
2022/04/19 14:18:26;;;;;;;2.22;1.45;;;19.60;49.60;;;;;;4909456;28;100141;-70
2022/04/19 14:20:52;;;;;;;2.10;1.50;;;19.60;49.50;;;;;;4910092;28;99380;-70
2022/04/19 14:23:17;;;;;;;1.55;1.30;;;19.60;49.50;;;;;;4911776;28;99101;-69
2022/04/19 14:25:48;;;;;;;1.75;1.30;;;19.60;49.50;;;;;;4893658;28;101968;-71
2022/04/19 14:28:14;;;;;;;2.67;1.50;;;19.60;49.50;;;;;;4911032;28;100439;-69
2022/04/19 14:33:25;;;;;;;1.55;1.42;;;19.70;49.60;;;;;;4911798;28;99106;-69
2022/04/19 14:35:51;;;;;;;1.55;1.27;;;19.60;49.50;;;;;;4910149;28;100472;-69